Time;durP1;ratioP1;P1;durP2;ratioP2;P2;SDS_P1;SDS_P2;PMS_P1;PMS_P2;Temp;Humidity;BMP_temperature;BMP_pressure;BME280_temperature;BME280_humidity;BME280_pressure;Samples;Min_cycle;Max_cycle;Signal;HPM_P1;HPM_P2
2024/01/31 00:01:55;;;;;;;15.32;13.52;;;;;;;8.88;66.78;99602.19;5042580;28;20217;-73
2024/01/31 00:04:23;;;;;;;16.15;13.63;;;;;;;8.83;67.20;99602.63;5047521;28;20199;-73
2024/01/31 00:06:50;;;;;;;19.73;15.25;;;;;;;8.93;66.93;99605.28;5044418;28;20213;-73
2024/01/31 00:09:17;;;;;;;15.93;14.23;;;;;;;8.95;66.71;99609.53;5046619;28;20296;-73
2024/01/31 00:11:44;;;;;;;15.55;13.88;;;;;;;8.95;66.42;99604.13;5046093;28;20676;-72
2024/01/31 00:14:13;;;;;;;16.20;14.43;;;;;;;8.92;66.80;99603.56;5047678;28;22059;-72
2024/01/31 00:16:42;;;;;;;15.70;14.00;;;;;;;8.81;67.24;99604.63;5043863;28;20543;-73
2024/01/31 00:19:08;;;;;;;17.80;13.57;;;;;;;8.90;66.63;99606.44;5038618;28;22506;-73
2024/01/31 00:21:37;;;;;;;16.65;14.13;;;;;;;8.74;67.45;99599.03;5045662;28;20228;-73
2024/01/31 00:24:04;;;;;;;16.65;13.73;;;;;;;8.90;67.26;99594.78;5039820;28;20650;-72
2024/01/31 00:26:30;;;;;;;14.45;13.00;;;;;;;8.86;68.39;99598.78;5044322;28;20231;-73
2024/01/31 00:28:57;;;;;;;14.98;13.38;;;;;;;8.96;67.74;99600.41;5047572;28;20280;-73
2024/01/31 00:31:23;;;;;;;13.77;12.40;;;;;;;9.07;67.50;99597.50;5038213;28;20193;-73
2024/01/31 00:33:50;;;;;;;12.35;11.13;;;;;;;9.02;67.43;99596.25;5043568;28;20745;-72
2024/01/31 00:36:16;;;;;;;11.90;10.70;;;;;;;8.90;68.66;99594.78;5045372;28;20203;-73
2024/01/31 00:38:44;;;;;;;10.52;9.43;;;;;;;9.19;68.32;99598.09;5044851;28;21149;-73
2024/01/31 00:41:11;;;;;;;9.75;8.75;;;;;;;9.24;68.69;99603.88;5042489;28;20252;-73
2024/01/31 00:43:37;;;;;;;10.50;8.80;;;;;;;9.38;68.67;99597.09;5046828;28;20221;-73
2024/01/31 00:46:04;;;;;;;8.88;7.80;;;;;;;9.25;69.19;99594.78;5044354;28;20232;-73
2024/01/31 00:48:32;;;;;;;9.13;8.15;;;;;;;9.46;68.56;99596.28;5043268;28;20295;-73
2024/01/31 00:50:58;;;;;;;10.15;9.10;;;;;;;9.34;69.00;99596.56;5037215;28;20223;-73
2024/01/31 00:53:25;;;;;;;9.65;8.65;;;;;;;9.38;68.83;99597.09;5043131;28;20274;-72
2024/01/31 00:55:53;;;;;;;9.95;8.95;;;;;;;9.53;68.56;99594.66;5042787;28;20229;-73
2024/01/31 00:58:21;;;;;;;9.00;8.20;;;;;;;9.49;68.42;99593.28;5045553;28;20267;-73
2024/01/31 01:00:48;;;;;;;9.82;8.65;;;;;;;9.55;68.72;99600.75;5038633;28;20306;-73
2024/01/31 01:03:14;;;;;;;8.38;7.57;;;;;;;9.47;68.99;99600.69;5037349;28;20202;-73
2024/01/31 01:05:41;;;;;;;9.32;8.43;;;;;;;9.50;68.78;99598.53;5046552;28;20205;-73
2024/01/31 01:08:07;;;;;;;9.20;8.40;;;;;;;9.60;68.31;99602.00;5043902;28;20201;-73
2024/01/31 01:10:35;;;;;;;8.95;8.15;;;;;;;9.74;67.93;99592.47;5045035;28;20276;-73
2024/01/31 01:13:03;;;;;;;8.90;8.10;;;;;;;9.66;68.33;99597.81;5040316;28;20235;-73
2024/01/31 01:15:30;;;;;;;8.98;8.10;;;;;;;9.72;68.46;99597.19;5047991;28;20561;-73
2024/01/31 01:17:56;;;;;;;9.32;8.45;;;;;;;9.59;68.77;99594.91;5047992;28;20197;-73
2024/01/31 01:20:23;;;;;;;8.68;7.82;;;;;;;9.78;67.73;99599.25;5045830;28;20315;-72
2024/01/31 01:22:49;;;;;;;8.93;8.13;;;;;;;9.58;68.43;99597.75;5050328;28;20338;-73
2024/01/31 01:25:16;;;;;;;8.55;7.65;;;;;;;9.53;68.65;99602.78;5047939;28;20232;-73
2024/01/31 01:27:50;;;;;;;8.52;7.80;;;;;;;9.51;68.49;99604.78;5047392;28;20292;-73
2024/01/31 01:30:19;;;;;;;8.50;7.70;;;;;;;9.64;68.25;99611.50;5049349;28;20222;-73
2024/01/31 01:32:46;;;;;;;9.52;8.63;;;;;;;9.59;68.71;99604.84;5048744;28;20201;-73
2024/01/31 01:35:14;;;;;;;9.15;8.25;;;;;;;9.75;68.11;99607.66;5051454;28;20193;-73
2024/01/31 01:37:40;;;;;;;8.52;7.63;;;;;;;9.61;68.73;99605.56;5045954;28;20561;-73
2024/01/31 01:40:08;;;;;;;9.48;8.50;;;;;;;9.71;68.67;99606.31;5045477;28;20269;-73
2024/01/31 01:42:38;;;;;;;8.75;7.95;;;;;;;9.76;68.42;99595.84;5047062;28;20317;-72
2024/01/31 01:45:05;;;;;;;8.48;7.78;;;;;;;9.72;68.52;99600.75;5049102;28;20205;-73
2024/01/31 01:47:34;;;;;;;10.57;9.10;;;;;;;9.95;67.66;99598.34;5049251;28;20291;-72
2024/01/31 01:50:02;;;;;;;8.98;8.15;;;;;;;9.73;68.00;99604.31;5049489;28;20217;-73
2024/01/31 01:52:29;;;;;;;9.90;8.93;;;;;;;9.71;68.08;99593.63;5045481;28;20201;-72
2024/01/31 01:54:56;;;;;;;9.10;8.30;;;;;;;9.43;69.20;99590.19;5046469;28;20197;-73
2024/01/31 01:57:23;;;;;;;8.95;8.15;;;;;;;9.40;69.66;99598.66;5049080;28;20197;-73
2024/01/31 01:59:49;;;;;;;10.25;8.63;;;;;;;9.46;69.42;99599.00;5048756;28;20205;-72
2024/01/31 02:02:17;;;;;;;8.73;7.90;;;;;;;9.56;69.25;99587.09;5049942;28;20221;-73
2024/01/31 02:04:45;;;;;;;8.68;7.97;;;;;;;9.72;68.85;99583.69;5049751;28;20209;-73
2024/01/31 02:07:12;;;;;;;8.88;8.07;;;;;;;9.55;69.74;99584.56;5051474;28;20204;-73
2024/01/31 02:09:39;;;;;;;9.55;8.73;;;;;;;9.61;68.83;99584.78;5042395;28;20795;-73
2024/01/31 02:12:06;;;;;;;15.10;12.93;;;;;;;9.61;67.11;99584.78;5045829;28;20275;-72
2024/01/31 02:14:33;;;;;;;13.85;12.45;;;;;;;9.65;66.35;99572.66;5048620;28;20197;-72
2024/01/31 02:16:59;;;;;;;15.05;13.43;;;;;;;9.35;66.57;99573.09;5043603;28;20647;-73
2024/01/31 02:19:26;;;;;;;15.48;13.93;;;;;;;9.33;66.63;99565.16;5049580;28;20569;-72
2024/01/31 02:21:57;;;;;;;15.45;13.10;;;;;;;9.15;67.49;99569.69;5047541;28;20225;-73
2024/01/31 02:24:25;;;;;;;17.13;13.27;;;;;;;9.05;67.45;99571.66;5050051;28;20205;-73
2024/01/31 02:26:52;;;;;;;15.68;13.90;;;;;;;8.94;68.13;99575.44;5048867;28;20209;-72
2024/01/31 02:29:18;;;;;;;16.30;13.07;;;;;;;8.70;69.13;99570.63;5049458;28;20207;-73
2024/01/31 02:31:45;;;;;;;15.50;13.85;;;;;;;8.45;70.59;99568.63;5042360;28;20283;-72
2024/01/31 02:34:12;;;;;;;14.25;12.90;;;;;;;8.26;71.53;99574.13;5043615;28;20296;-72
2024/01/31 02:36:39;;;;;;;13.88;12.35;;;;;;;8.30;72.01;99564.72;5043654;28;20205;-73
2024/01/31 02:39:05;;;;;;;13.65;12.45;;;;;;;8.18;72.67;99566.78;5036688;28;20292;-73
2024/01/31 02:41:33;;;;;;;14.10;12.63;;;;;;;8.18;73.05;99565.91;5040737;28;20221;-73
2024/01/31 02:44:00;;;;;;;12.68;11.38;;;;;;;8.36;72.78;99569.56;5043172;28;20215;-72
2024/01/31 02:46:26;;;;;;;13.52;12.20;;;;;;;8.48;72.63;99562.94;5047418;28;20284;-72
2024/01/31 02:48:53;;;;;;;12.82;11.57;;;;;;;8.52;72.34;99569.75;5047816;28;20263;-72
2024/01/31 02:51:19;;;;;;;12.95;11.75;;;;;;;8.62;72.11;99570.53;5044652;28;20298;-72
2024/01/31 02:53:46;;;;;;;13.52;12.18;;;;;;;8.51;72.08;99568.03;5048189;28;20233;-73
2024/01/31 02:56:12;;;;;;;14.80;11.95;;;;;;;8.23;72.34;99564.47;5046633;28;20296;-72
2024/01/31 02:58:40;;;;;;;14.93;13.45;;;;;;;7.94;73.10;99575.38;5045257;28;20209;-72
2024/01/31 03:01:08;;;;;;;16.17;13.90;;;;;;;7.81;73.43;99574.84;5046961;28;20217;-72
2024/01/31 03:03:34;;;;;;;14.30;12.90;;;;;;;8.07;73.22;99573.22;5048980;28;20211;-72
2024/01/31 03:06:01;;;;;;;14.73;13.15;;;;;;;8.14;72.90;99583.38;5040771;28;20644;-72
2024/01/31 03:08:27;;;;;;;11.57;10.40;;;;;;;8.18;73.75;99565.91;5040493;28;20219;-72
2024/01/31 03:10:54;;;;;;;13.20;11.80;;;;;;;8.41;72.77;99559.19;5041909;28;20205;-73
2024/01/31 03:13:21;;;;;;;12.45;11.15;;;;;;;8.39;72.89;99559.31;5042152;28;20585;-73
2024/01/31 03:15:49;;;;;;;14.05;12.10;;;;;;;8.44;72.60;99556.19;5047873;28;20292;-72
2024/01/31 03:18:15;;;;;;;13.85;12.20;;;;;;;8.42;71.61;99550.09;5043312;28;20197;-72
2024/01/31 03:20:42;;;;;;;14.60;12.57;;;;;;;8.17;72.42;99561.53;5046606;28;20208;-73
2024/01/31 03:23:08;;;;;;;15.20;13.57;;;;;;;8.21;72.12;99555.69;5049238;28;20231;-73
2024/01/31 03:25:35;;;;;;;14.27;12.70;;;;;;;8.19;72.25;99554.13;5048791;28;20201;-73
2024/01/31 03:28:01;;;;;;;15.80;14.20;;;;;;;8.17;72.45;99554.28;5038573;28;20331;-73
2024/01/31 03:30:29;;;;;;;15.27;13.25;;;;;;;8.27;72.05;99552.41;5042776;28;20197;-73
2024/01/31 03:32:57;;;;;;;16.58;13.50;;;;;;;8.35;71.90;99546.28;5048520;28;20676;-73
2024/01/31 03:35:23;;;;;;;15.60;13.85;;;;;;;8.18;72.10;99561.38;5046219;28;20192;-73
2024/01/31 03:37:50;;;;;;;14.50;13.10;;;;;;;8.22;72.41;99551.13;5045845;28;20293;-73
2024/01/31 03:40:17;;;;;;;18.05;13.32;;;;;;;8.27;72.18;99556.94;5039994;28;20297;-73
2024/01/31 03:42:44;;;;;;;14.30;12.73;;;;;;;8.36;71.68;99556.94;5048453;28;20266;-73
2024/01/31 03:45:12;;;;;;;15.25;13.18;;;;;;;8.20;72.13;99547.75;5045415;28;20569;-73
2024/01/31 03:47:39;;;;;;;13.82;12.52;;;;;;;8.32;71.91;99557.34;5045091;28;20197;-73
2024/01/31 03:50:08;;;;;;;14.38;12.88;;;;;;;8.28;72.08;99559.50;5047900;28;20235;-73
2024/01/31 03:52:36;;;;;;;14.82;13.15;;;;;;;8.24;72.24;99555.38;5042091;28;20749;-73
2024/01/31 03:55:02;;;;;;;14.95;13.38;;;;;;;8.18;72.06;99558.69;5047314;28;20217;-73
2024/01/31 03:57:29;;;;;;;16.08;13.65;;;;;;;8.25;72.07;99556.25;5042661;28;20202;-73
2024/01/31 03:59:55;;;;;;;15.02;12.20;;;;;;;8.31;71.57;99558.34;5044902;28;20194;-72
2024/01/31 04:02:22;;;;;;;15.05;12.60;;;;;;;8.08;72.57;99555.19;5045850;28;20221;-73
2024/01/31 04:04:49;;;;;;;14.32;12.35;;;;;;;8.19;72.08;99557.69;5045887;28;20201;-72
2024/01/31 04:07:17;;;;;;;13.90;12.40;;;;;;;7.97;72.83;99569.72;5045283;28;20193;-72
2024/01/31 04:09:43;;;;;;;16.10;13.02;;;;;;;8.14;72.66;99565.38;5040127;28;22765;-72
2024/01/31 04:12:10;;;;;;;16.05;13.10;;;;;;;8.28;72.42;99567.56;5042906;28;21032;-73
2024/01/31 04:14:36;;;;;;;14.13;12.73;;;;;;;8.38;71.79;99551.38;5047937;28;20259;-73
2024/01/31 04:17:03;;;;;;;17.42;14.13;;;;;;;8.31;71.88;99567.28;5043828;28;20591;-73
2024/01/31 04:19:29;;;;;;;13.93;12.57;;;;;;;8.07;72.68;99564.28;5046659;28;20286;-72
2024/01/31 04:21:56;;;;;;;13.63;12.20;;;;;;;8.30;72.20;99564.72;5043836;28;20231;-73
2024/01/31 04:24:24;;;;;;;13.93;12.27;;;;;;;8.03;72.96;99568.28;5040191;28;20527;-72
2024/01/31 04:26:51;;;;;;;14.05;12.52;;;;;;;8.26;72.15;99571.41;5041079;28;20215;-73
2024/01/31 04:29:18;;;;;;;13.90;12.57;;;;;;;8.34;72.23;99558.06;5042971;28;20720;-73
2024/01/31 04:31:45;;;;;;;15.60;12.13;;;;;;;8.44;71.73;99566.97;5042397;28;20203;-72
2024/01/31 04:34:12;;;;;;;14.15;12.75;;;;;;;8.43;71.93;99576.06;5046046;28;21257;-72
2024/01/31 04:36:38;;;;;;;13.82;12.38;;;;;;;8.53;71.45;99566.03;5046836;28;20284;-73
2024/01/31 04:39:05;;;;;;;15.35;12.40;;;;;;;8.51;71.49;99568.03;5042305;28;20197;-73
2024/01/31 04:41:32;;;;;;;13.77;12.20;;;;;;;8.44;71.57;99577.75;5043893;28;20224;-73
2024/01/31 04:43:59;;;;;;;14.23;10.82;;;;;;;8.42;72.24;99577.06;5045492;28;20189;-73
2024/01/31 04:46:26;;;;;;;11.30;10.20;;;;;;;8.47;73.49;99572.03;5046502;28;20259;-72
2024/01/31 04:48:52;;;;;;;11.85;10.15;;;;;;;8.49;73.81;99575.44;5042832;28;20227;-73
2024/01/31 04:51:19;;;;;;;12.63;11.32;;;;;;;8.60;73.03;99583.34;5043903;28;20211;-73
2024/01/31 04:53:45;;;;;;;13.07;11.80;;;;;;;8.73;71.78;99597.31;5047035;28;20219;-73
2024/01/31 04:56:12;;;;;;;13.27;11.82;;;;;;;8.57;73.10;99590.88;5042311;28;20205;-73
2024/01/31 04:58:40;;;;;;;11.75;10.60;;;;;;;8.53;73.85;99587.63;5040946;28;20205;-73
2024/01/31 05:01:06;;;;;;;14.15;10.70;;;;;;;8.50;74.96;99595.16;5043086;28;20205;-73
2024/01/31 05:03:33;;;;;;;10.95;9.80;;;;;;;8.54;74.67;99600.13;5046817;28;20217;-73
2024/01/31 05:05:59;;;;;;;12.27;11.18;;;;;;;8.51;74.91;99603.13;5046887;28;20561;-73
2024/01/31 05:08:27;;;;;;;12.80;11.35;;;;;;;8.61;75.79;99609.31;5043903;28;20197;-73
2024/01/31 05:10:54;;;;;;;10.52;9.45;;;;;;;8.80;76.29;99600.25;5045969;28;20276;-73
2024/01/31 05:13:22;;;;;;;11.18;10.18;;;;;;;8.99;76.00;99600.13;5040706;28;20209;-73
2024/01/31 05:15:50;;;;;;;11.40;10.30;;;;;;;8.88;76.75;99602.19;5042502;28;20283;-73
2024/01/31 05:18:17;;;;;;;9.73;8.82;;;;;;;9.03;76.22;99606.06;5044400;28;20328;-73
2024/01/31 05:20:44;;;;;;;10.48;9.48;;;;;;;8.97;76.79;99609.38;5041350;28;20207;-73
2024/01/31 05:23:10;;;;;;;11.13;9.20;;;;;;;9.18;76.26;99617.16;5044405;28;21634;-73
2024/01/31 05:25:37;;;;;;;10.30;9.20;;;;;;;9.22;76.79;99616.69;5044847;28;20278;-73
2024/01/31 05:28:03;;;;;;;10.35;9.25;;;;;;;9.23;77.05;99607.59;5040592;28;20594;-73
2024/01/31 05:30:30;;;;;;;10.18;8.73;;;;;;;9.37;76.52;99615.16;5037758;28;20211;-73
2024/01/31 05:32:58;;;;;;;10.32;9.35;;;;;;;9.29;76.67;99616.94;5045992;28;20201;-71
2024/01/31 05:35:25;;;;;;;13.00;11.32;;;;;;;9.23;73.79;99625.66;5041443;28;20205;-73
2024/01/31 05:37:51;;;;;;;14.07;12.65;;;;;;;8.97;72.62;99623.72;5040007;28;20205;-73
2024/01/31 05:40:19;;;;;;;13.48;12.15;;;;;;;8.75;72.87;99630.41;5044994;28;20189;-72
2024/01/31 05:42:45;;;;;;;14.40;13.00;;;;;;;8.73;73.10;99631.56;5043670;28;20221;-74
2024/01/31 05:45:12;;;;;;;13.60;12.20;;;;;;;8.70;74.07;99629.16;5036443;28;20201;-73
2024/01/31 05:47:38;;;;;;;14.05;12.65;;;;;;;8.79;74.06;99633.63;5043196;28;20190;-74
2024/01/31 05:50:07;;;;;;;11.25;10.25;;;;;;;8.55;78.53;99649.53;5041635;28;20219;-74
2024/01/31 05:52:35;;;;;;;10.68;9.38;;;;;;;8.58;79.96;99633.91;5044309;28;20202;-74
2024/01/31 05:55:01;;;;;;;11.27;10.18;;;;;;;8.81;79.24;99619.97;5044064;28;20208;-73
2024/01/31 05:57:29;;;;;;;10.73;9.63;;;;;;;8.70;79.83;99630.00;5042979;28;20662;-74
2024/01/31 05:59:57;;;;;;;10.02;9.10;;;;;;;8.83;79.64;99628.78;5043412;28;20615;-74
2024/01/31 06:02:24;;;;;;;9.95;8.95;;;;;;;8.74;80.22;99631.41;5047929;28;20221;-74
2024/01/31 06:04:51;;;;;;;10.13;9.20;;;;;;;8.63;80.95;99631.59;5051302;28;20285;-74
2024/01/31 06:07:19;;;;;;;10.95;9.85;;;;;;;8.74;80.82;99633.25;5051099;28;20193;-72
2024/01/31 06:09:46;;;;;;;10.05;9.15;;;;;;;8.77;80.80;99633.78;5042637;28;20714;-75
2024/01/31 06:12:13;;;;;;;10.93;9.80;;;;;;;8.71;81.17;99634.41;5048527;28;20275;-74
2024/01/31 06:14:39;;;;;;;12.13;9.60;;;;;;;8.57;82.19;99643.00;5050717;28;20194;-74
2024/01/31 06:17:06;;;;;;;12.30;9.75;;;;;;;8.62;82.00;99647.94;5048488;28;20208;-75
2024/01/31 06:19:34;;;;;;;10.80;10.00;;;;;;;8.49;82.61;99640.19;5044436;28;20288;-74
2024/01/31 06:22:00;;;;;;;11.35;10.25;;;;;;;8.61;82.45;99644.41;5048354;28;20202;-74
2024/01/31 06:24:28;;;;;;;12.63;11.40;;;;;;;8.75;81.82;99632.25;5051121;28;20205;-74
2024/01/31 06:26:55;;;;;;;12.43;11.32;;;;;;;8.60;82.50;99648.09;5046370;28;20220;-74
2024/01/31 06:29:23;;;;;;;13.63;12.32;;;;;;;8.44;83.22;99637.13;5047083;28;20206;-74
2024/01/31 06:31:51;;;;;;;12.95;11.75;;;;;;;8.44;83.34;99641.66;5046116;28;20205;-74
2024/01/31 06:34:18;;;;;;;13.00;11.70;;;;;;;8.51;83.23;99646.28;5048600;28;20215;-74
2024/01/31 06:36:46;;;;;;;14.13;12.70;;;;;;;8.56;82.94;99635.06;5046627;28;20205;-74
2024/01/31 06:39:12;;;;;;;13.57;12.13;;;;;;;8.64;82.25;99638.72;5043520;28;20212;-74
2024/01/31 06:41:40;;;;;;;13.05;11.88;;;;;;;8.56;82.45;99644.00;5042666;28;20290;-75
2024/01/31 06:44:07;;;;;;;13.02;11.73;;;;;;;8.65;82.32;99650.34;5046722;28;20252;-74
2024/01/31 06:46:33;;;;;;;14.40;12.90;;;;;;;8.53;82.64;99647.00;5046761;28;20699;-75
2024/01/31 06:49:00;;;;;;;13.80;12.40;;;;;;;8.54;82.42;99646.00;5046984;28;20220;-75
2024/01/31 06:51:27;;;;;;;14.43;12.77;;;;;;;8.61;82.31;99639.00;5049397;28;20318;-78
2024/01/31 06:53:54;;;;;;;15.57;13.40;;;;;;;8.67;81.73;99641.09;5380345;22;20661;-75
2024/01/31 06:56:21;;;;;;;14.32;13.02;;;;;;;8.43;82.14;99651.59;5070605;28;20205;-75
2024/01/31 06:58:54;;;;;;;15.13;13.60;;;;;;;8.75;80.93;99656.56;5072782;28;20281;-75
2024/01/31 07:01:22;;;;;;;15.35;13.65;;;;;;;8.45;81.88;99654.97;5061432;28;20207;-75
2024/01/31 07:03:51;;;;;;;14.88;13.48;;;;;;;8.46;82.10;99659.38;5072135;28;20346;-75
2024/01/31 07:06:19;;;;;;;16.10;14.70;;;;;;;8.42;82.16;99658.00;5074582;28;20207;-75
2024/01/31 07:08:46;;;;;;;16.52;14.93;;;;;;;8.23;82.85;99656.19;5066431;28;20299;-75
2024/01/31 07:11:13;;;;;;;15.52;14.10;;;;;;;8.31;82.48;99660.84;5035158;28;20199;-73
2024/01/31 07:13:42;;;;;;;15.93;14.32;;;;;;;8.44;82.28;99653.31;5050231;28;20249;-75
2024/01/31 07:16:11;;;;;;;15.57;13.88;;;;;;;8.42;82.25;99655.31;5065605;28;20203;-74
2024/01/31 07:18:40;;;;;;;15.95;14.35;;;;;;;8.47;82.48;99655.69;5048517;28;20204;-75
2024/01/31 07:21:07;;;;;;;15.95;14.35;;;;;;;8.46;82.22;99659.38;5049306;28;20208;-73
2024/01/31 07:23:34;;;;;;;17.17;15.57;;;;;;;8.45;82.13;99657.66;5069747;28;20295;-73
2024/01/31 07:26:01;;;;;;;16.90;15.30;;;;;;;8.53;81.96;99657.78;5060099;28;20232;-73
2024/01/31 07:28:28;;;;;;;16.33;14.63;;;;;;;8.43;82.47;99661.53;5065902;28;20205;-73
2024/01/31 07:30:54;;;;;;;17.63;15.15;;;;;;;8.49;82.33;99667.16;5070621;28;20293;-75
2024/01/31 07:33:22;;;;;;;16.02;14.43;;;;;;;8.46;82.29;99667.47;5023830;28;20214;-75
2024/01/31 07:35:49;;;;;;;17.40;15.63;;;;;;;8.54;81.84;99656.78;5068715;28;20211;-75
2024/01/31 07:38:17;;;;;;;16.17;14.60;;;;;;;8.72;81.44;99646.91;5069577;28;20189;-75
2024/01/31 07:40:44;;;;;;;15.65;14.15;;;;;;;8.48;82.46;99657.38;5047793;28;20211;-75
2024/01/31 07:43:11;;;;;;;16.58;15.07;;;;;;;8.39;82.93;99655.59;5071350;28;20216;-75
2024/01/31 07:45:37;;;;;;;17.08;15.48;;;;;;;8.50;82.43;99658.06;5051847;28;20196;-75
2024/01/31 07:48:05;;;;;;;19.23;15.68;;;;;;;8.61;82.35;99657.03;5071565;28;20196;-75
2024/01/31 07:50:33;;;;;;;17.45;15.80;;;;;;;8.69;81.54;99658.00;5046319;28;20751;-75
2024/01/31 07:52:59;;;;;;;16.63;15.00;;;;;;;8.40;83.02;99649.19;5070374;28;20201;-75
2024/01/31 07:55:26;;;;;;;16.20;14.80;;;;;;;8.43;82.91;99654.31;5067118;28;20209;-75
2024/01/31 07:57:52;;;;;;;18.05;16.25;;;;;;;8.44;82.72;99647.91;5069074;28;20204;-73
2024/01/31 08:00:21;;;;;;;19.40;17.02;;;;;;;8.33;83.54;99646.25;5069190;28;20203;-73
2024/01/31 08:02:48;;;;;;;16.95;15.32;;;;;;;8.30;83.45;99660.00;5066262;28;20227;-73
2024/01/31 08:05:15;;;;;;;15.45;14.10;;;;;;;8.36;83.12;99655.88;5063052;28;20209;-73
2024/01/31 08:07:45;;;;;;;17.20;15.70;;;;;;;8.33;83.38;99651.63;5067040;28;20196;-73
2024/01/31 08:10:12;;;;;;;16.73;15.32;;;;;;;8.27;83.61;99659.44;5049179;28;20760;-73
2024/01/31 08:12:41;;;;;;;18.50;16.80;;;;;;;8.32;83.26;99660.72;5064736;28;20283;-73
2024/01/31 08:15:08;;;;;;;16.10;14.63;;;;;;;8.27;83.38;99651.34;5065597;28;20590;-74
2024/01/31 08:17:35;;;;;;;17.40;15.77;;;;;;;8.20;83.47;99663.72;5051021;28;20631;-73
2024/01/31 08:20:03;;;;;;;16.10;14.60;;;;;;;8.20;83.93;99661.00;5064588;28;20209;-73
2024/01/31 08:22:31;;;;;;;18.13;16.42;;;;;;;8.30;83.07;99664.53;5050919;28;20201;-74
2024/01/31 08:24:59;;;;;;;18.23;16.42;;;;;;;8.13;83.35;99659.88;5069187;28;20283;-73
2024/01/31 08:27:26;;;;;;;17.85;16.15;;;;;;;7.87;84.79;99665.91;5065909;28;20197;-74
2024/01/31 08:29:52;;;;;;;18.75;17.00;;;;;;;7.91;85.11;99661.94;5051355;28;20236;-73
2024/01/31 08:32:19;;;;;;;19.30;17.42;;;;;;;7.95;84.97;99668.75;5065802;28;20250;-73
2024/01/31 08:34:46;;;;;;;19.48;17.67;;;;;;;8.11;84.24;99665.47;5061039;28;20207;-73
2024/01/31 08:37:13;;;;;;;17.48;15.80;;;;;;;8.20;84.04;99666.41;5070939;28;20249;-72
2024/01/31 08:39:40;;;;;;;17.60;15.93;;;;;;;8.32;83.06;99659.84;5044750;28;20226;-73
2024/01/31 08:42:09;;;;;;;18.27;16.58;;;;;;;8.52;82.50;99669.56;5068372;28;20200;-73
2024/01/31 08:44:35;;;;;;;16.73;15.13;;;;;;;8.41;82.99;99664.38;5050990;28;20230;-72
2024/01/31 08:47:02;;;;;;;19.38;16.30;;;;;;;8.52;82.55;99661.47;5066741;28;20287;-73
2024/01/31 08:49:28;;;;;;;17.80;16.10;;;;;;;8.52;82.33;99660.63;5068268;28;20669;-72
2024/01/31 08:51:55;;;;;;;18.35;16.65;;;;;;;8.33;83.22;99653.47;5052100;28;20538;-72
2024/01/31 08:54:22;;;;;;;19.42;17.45;;;;;;;8.36;83.88;99653.19;5063243;28;20200;-73
2024/01/31 08:56:48;;;;;;;18.13;16.52;;;;;;;8.35;83.42;99648.78;5047821;28;20552;-73
2024/01/31 08:59:17;;;;;;;20.13;18.05;;;;;;;8.32;83.83;99643.66;5049376;28;20213;-73
2024/01/31 09:01:44;;;;;;;21.30;19.20;;;;;;;8.21;84.20;99647.38;5062730;28;20747;-72
2024/01/31 09:04:10;;;;;;;23.42;21.23;;;;;;;8.03;85.04;99643.75;5059661;28;20307;-73
2024/01/31 09:06:37;;;;;;;22.05;20.00;;;;;;;8.06;85.07;99649.72;5069177;28;20204;-73
2024/01/31 09:09:04;;;;;;;22.05;19.92;;;;;;;8.17;84.77;99651.38;5067360;28;22070;-73
2024/01/31 09:11:32;;;;;;;25.17;22.58;;;;;;;8.15;85.27;99647.13;5043680;28;20203;-72
2024/01/31 09:13:59;;;;;;;24.10;21.60;;;;;;;8.41;84.19;99648.22;5044967;28;20210;-73
2024/01/31 09:16:27;;;;;;;23.05;20.85;;;;;;;8.62;83.32;99653.34;5045089;28;20961;-74
2024/01/31 09:18:53;;;;;;;22.38;20.23;;;;;;;8.65;83.07;99656.59;5049855;28;20196;-74
2024/01/31 09:21:21;;;;;;;22.10;19.90;;;;;;;8.89;82.04;99656.03;5068729;28;20196;-74
2024/01/31 09:23:48;;;;;;;24.40;21.95;;;;;;;8.94;81.24;99652.88;5063578;28;20220;-73
2024/01/31 09:26:15;;;;;;;22.38;20.02;;;;;;;8.93;81.79;99656.56;5059645;28;20193;-73
2024/01/31 09:28:44;;;;;;;23.45;20.27;;;;;;;8.95;81.81;99641.06;5054168;28;20184;-73
2024/01/31 09:31:11;;;;;;;22.35;20.25;;;;;;;9.08;80.97;99645.13;5060917;28;20291;-73
2024/01/31 09:33:40;;;;;;;21.75;19.65;;;;;;;8.96;81.44;99642.78;5065212;28;20212;-73
2024/01/31 09:36:07;;;;;;;23.30;19.00;;;;;;;9.02;81.16;99647.56;5071333;28;20207;-73
2024/01/31 09:38:34;;;;;;;21.92;19.63;;;;;;;9.10;80.92;99647.63;5073971;28;20197;-73
2024/01/31 09:41:00;;;;;;;20.92;19.02;;;;;;;9.02;81.07;99639.47;5041952;28;20675;-73
2024/01/31 09:43:27;;;;;;;21.08;19.00;;;;;;;8.94;81.35;99644.78;5071789;28;20224;-72
2024/01/31 09:45:54;;;;;;;21.27;19.33;;;;;;;8.95;81.57;99646.47;5071453;28;20207;-73
2024/01/31 09:48:21;;;;;;;19.63;17.60;;;;;;;8.94;81.31;99651.03;5052664;28;20228;-73
2024/01/31 09:50:49;;;;;;;21.25;19.35;;;;;;;8.74;82.16;99649.47;5066125;28;20196;-72
2024/01/31 09:53:16;;;;;;;20.55;18.52;;;;;;;8.80;82.46;99653.38;5069711;28;20201;-73
2024/01/31 09:55:43;;;;;;;21.45;19.45;;;;;;;8.72;82.41;99652.31;5072586;28;20214;-73
2024/01/31 09:58:10;;;;;;;20.95;19.05;;;;;;;8.91;82.02;99647.78;5069487;28;20203;-73
2024/01/31 10:00:37;;;;;;;22.58;20.35;;;;;;;8.79;82.36;99649.81;5066186;28;20211;-73
2024/01/31 10:03:05;;;;;;;21.83;19.88;;;;;;;8.71;82.64;99657.84;5061228;28;20239;-73
2024/01/31 10:05:31;;;;;;;22.77;20.52;;;;;;;8.66;82.83;99646.66;5049520;28;20565;-73
2024/01/31 10:08:02;;;;;;;21.25;19.20;;;;;;;8.64;84.05;99645.94;5042848;28;20326;-71
2024/01/31 10:10:29;;;;;;;22.08;19.80;;;;;;;8.74;83.33;99644.91;5071852;28;20201;-72
2024/01/31 10:12:56;;;;;;;22.10;20.10;;;;;;;8.83;82.89;99626.09;5071651;28;20193;-72
2024/01/31 10:15:23;;;;;;;20.00;18.13;;;;;;;8.89;82.62;99623.63;5069156;28;20188;-72
2024/01/31 10:17:49;;;;;;;22.83;20.70;;;;;;;8.98;82.24;99633.53;5048703;28;20227;-72
2024/01/31 10:20:16;;;;;;;21.23;19.17;;;;;;;8.83;82.74;99635.03;5070601;28;20200;-71
2024/01/31 10:22:44;;;;;;;20.85;18.85;;;;;;;8.61;83.95;99649.78;5067851;28;20204;-72
2024/01/31 10:25:16;;;;;;;20.40;18.58;;;;;;;8.91;82.83;99639.69;5065024;28;20719;-72
2024/01/31 10:27:44;;;;;;;21.80;19.70;;;;;;;8.79;83.50;99621.97;5043388;28;20216;-73
2024/01/31 10:30:12;;;;;;;21.17;19.05;;;;;;;9.24;81.97;99620.09;5049772;28;20210;-71
2024/01/31 10:32:40;;;;;;;20.50;18.52;;;;;;;9.28;81.23;99618.78;5069647;28;20201;-72
2024/01/31 10:35:08;;;;;;;19.10;17.40;;;;;;;9.18;81.48;99626.13;5065948;28;20883;-71
2024/01/31 10:37:34;;;;;;;17.90;16.10;;;;;;;9.45;80.30;99622.47;5063460;28;20192;-71
2024/01/31 10:40:04;;;;;;;19.38;17.52;;;;;;;9.15;81.33;99621.00;5048983;28;20208;-71
2024/01/31 10:42:32;;;;;;;19.45;17.65;;;;;;;9.22;81.66;99607.75;5063917;28;20228;-71
2024/01/31 10:44:59;;;;;;;20.90;18.75;;;;;;;9.24;81.28;99609.28;5064496;28;20315;-71
2024/01/31 10:47:27;;;;;;;20.98;18.20;;;;;;;9.20;80.71;99607.91;5057788;28;20402;-71
2024/01/31 10:49:54;;;;;;;18.83;16.92;;;;;;;9.11;80.90;99603.41;5046407;28;20232;-71
2024/01/31 10:52:22;;;;;;;18.42;16.75;;;;;;;9.50;80.19;99597.69;5051340;28;20201;-71
2024/01/31 10:54:53;;;;;;;17.67;16.08;;;;;;;9.76;78.96;99599.41;5062248;28;20588;-71
2024/01/31 10:57:20;;;;;;;17.35;15.77;;;;;;;9.84;78.40;99595.91;5065821;28;20577;-71
2024/01/31 10:59:50;;;;;;;17.20;15.40;;;;;;;10.10;77.22;99602.16;5070464;28;20211;-75
2024/01/31 11:02:17;;;;;;;16.42;14.85;;;;;;;10.28;75.85;99593.16;5066576;28;20192;-71
2024/01/31 11:04:44;;;;;;;17.25;15.60;;;;;;;10.57;75.36;99599.03;5069195;28;20217;-72
2024/01/31 11:07:16;;;;;;;16.05;14.52;;;;;;;10.60;74.28;99593.28;5046602;28;20205;-71
2024/01/31 11:09:43;;;;;;;14.32;12.93;;;;;;;10.96;72.77;99591.19;5069511;28;20589;-79
2024/01/31 11:12:12;;;;;;;15.63;14.05;;;;;;;11.09;72.08;99590.69;5060920;28;20203;-72
2024/01/31 11:14:41;;;;;;;14.60;13.18;;;;;;;11.17;71.76;99585.28;5052671;28;20283;-72
2024/01/31 11:17:10;;;;;;;13.30;12.10;;;;;;;11.41;70.54;99569.00;5067479;28;20276;-70
2024/01/31 11:19:41;;;;;;;13.10;11.67;;;;;;;11.70;68.91;99562.19;5067251;28;20703;-70
2024/01/31 11:22:08;;;;;;;13.27;11.80;;;;;;;11.75;68.35;99560.69;5065543;28;20626;-71
2024/01/31 11:24:34;;;;;;;13.97;11.70;;;;;;;12.05;66.90;99566.41;5068823;28;20662;-73
2024/01/31 11:27:04;;;;;;;17.30;12.93;;;;;;;12.08;66.59;99556.06;5071078;28;20665;-73